createdAt,value
2023-05-15T00:01:11.437Z,18.51
2023-05-15T00:03:39.063Z,18.49
2023-05-15T00:06:06.865Z,18.48
2023-05-15T00:08:34.269Z,18.45
2023-05-15T00:11:02.286Z,18.44
2023-05-15T00:13:30.460Z,18.41
2023-05-15T00:15:58.214Z,18.40
2023-05-15T00:18:25.995Z,18.38
2023-05-15T00:20:53.775Z,18.34
2023-05-15T00:23:21.251Z,18.32
2023-05-15T00:25:48.977Z,18.29
2023-05-15T00:28:16.538Z,18.26
2023-05-15T00:30:44.198Z,18.23
2023-05-15T00:33:11.960Z,18.23
2023-05-15T00:35:39.835Z,18.21
2023-05-15T00:38:07.385Z,18.19
2023-05-15T00:40:35.049Z,18.18
2023-05-15T00:43:02.413Z,18.17
2023-05-15T00:45:30.168Z,18.17
2023-05-15T00:47:59.254Z,18.16
2023-05-15T00:50:27.031Z,18.16
2023-05-15T00:52:54.382Z,18.14
2023-05-15T00:55:21.868Z,18.14
2023-05-15T00:57:49.388Z,18.13
2023-05-15T01:00:18.806Z,18.12
2023-05-15T01:02:46.621Z,18.12
2023-05-15T01:05:14.329Z,18.12
2023-05-15T01:07:48.546Z,18.12
2023-05-15T01:10:16.305Z,18.11
2023-05-15T01:12:43.661Z,18.11
2023-05-15T01:15:11.635Z,18.10
2023-05-15T01:17:39.001Z,18.10
2023-05-15T01:20:07.558Z,18.11
2023-05-15T01:22:45.186Z,18.09
2023-05-15T01:25:23.652Z,18.07
2023-05-15T01:27:59.634Z,18.04
2023-05-15T01:30:28.833Z,18.02
2023-05-15T01:33:21.070Z,18.01
2023-05-15T01:36:23.458Z,17.97
2023-05-15T01:38:52.457Z,17.94
2023-05-15T01:41:24.503Z,17.93
2023-05-15T01:44:15.201Z,17.88
2023-05-15T01:46:46.824Z,17.81
2023-05-15T01:49:14.530Z,17.76
2023-05-15T01:51:42.073Z,17.68
2023-05-15T01:54:09.734Z,17.55
2023-05-15T01:56:38.219Z,17.36
2023-05-15T01:59:05.988Z,16.98
2023-05-15T02:01:33.974Z,16.60
2023-05-15T02:04:02.255Z,16.33
2023-05-15T02:06:31.931Z,16.21
2023-05-15T02:09:01.651Z,16.14
2023-05-15T02:11:29.300Z,15.93
2023-05-15T02:13:57.149Z,15.70
2023-05-15T02:16:24.769Z,15.63
2023-05-15T02:18:52.982Z,15.57
2023-05-15T02:21:20.769Z,15.55
2023-05-15T02:23:48.537Z,15.51
2023-05-15T02:26:35.140Z,15.51
2023-05-15T02:29:24.816Z,15.52
2023-05-15T02:32:04.748Z,15.47
2023-05-15T02:34:38.786Z,15.43
2023-05-15T02:37:07.870Z,15.41
2023-05-15T02:39:36.147Z,15.40
2023-05-15T02:42:04.016Z,15.39
2023-05-15T02:44:31.478Z,15.38
2023-05-15T02:46:59.035Z,15.41
2023-05-15T02:49:26.699Z,15.48
2023-05-15T02:51:54.349Z,15.58
2023-05-15T02:54:21.756Z,15.70
2023-05-15T02:56:49.263Z,15.84
2023-05-15T02:59:20.048Z,15.93
2023-05-15T03:01:48.105Z,15.97
2023-05-15T03:04:15.792Z,16.02
2023-05-15T03:06:43.698Z,16.09
2023-05-15T03:09:11.375Z,16.02
2023-05-15T03:11:38.941Z,15.94
2023-05-15T03:14:06.374Z,15.96
2023-05-15T03:16:33.971Z,16.01
2023-05-15T03:19:03.054Z,16.05
2023-05-15T03:21:30.801Z,16.10
2023-05-15T03:23:58.248Z,16.17
2023-05-15T03:26:26.113Z,16.21
2023-05-15T03:28:54.595Z,16.21
2023-05-15T03:31:22.179Z,16.23
2023-05-15T03:33:51.624Z,16.28
2023-05-15T03:36:19.438Z,16.34
2023-05-15T03:38:46.833Z,16.41
2023-05-15T03:41:14.764Z,16.46
2023-05-15T03:43:42.407Z,16.51
2023-05-15T03:46:09.914Z,16.60
2023-05-15T03:48:41.078Z,16.68
2023-05-15T03:51:08.359Z,16.76
2023-05-15T03:53:35.821Z,16.87
2023-05-15T03:56:03.877Z,17.01
2023-05-15T03:58:32.577Z,17.15
2023-05-15T04:01:00.340Z,17.27
2023-05-15T04:03:27.919Z,17.41
2023-05-15T04:05:55.885Z,17.55
2023-05-15T04:08:23.536Z,17.69
2023-05-15T04:10:51.329Z,17.83
2023-05-15T04:13:18.953Z,17.97
2023-05-15T04:15:46.936Z,18.11
2023-05-15T04:18:14.196Z,18.27
2023-05-15T04:20:41.837Z,18.40
2023-05-15T04:23:09.404Z,18.52
2023-05-15T04:25:37.979Z,18.62
2023-05-15T04:28:06.762Z,18.74
2023-05-15T04:30:34.526Z,18.84
2023-05-15T04:33:02.149Z,18.93
2023-05-15T04:35:30.369Z,19.03
2023-05-15T04:37:57.821Z,19.14
2023-05-15T04:40:25.586Z,19.23
2023-05-15T04:42:53.145Z,19.31
2023-05-15T04:45:21.211Z,19.40
2023-05-15T04:47:49.339Z,19.47
2023-05-15T04:50:16.858Z,19.54
2023-05-15T04:52:46.040Z,19.61
2023-05-15T04:55:13.462Z,19.69
2023-05-15T04:57:41.568Z,19.76
2023-05-15T05:00:12.675Z,19.81
2023-05-15T05:02:40.517Z,19.90
2023-05-15T05:05:08.773Z,19.99
2023-05-15T05:07:36.228Z,20.07
2023-05-15T05:10:04.594Z,20.13
2023-05-15T05:12:31.897Z,20.16
2023-05-15T05:14:59.615Z,20.18
2023-05-15T05:17:27.213Z,20.21
2023-05-15T05:19:54.852Z,20.24
2023-05-15T05:22:22.490Z,20.29
2023-05-15T05:24:49.916Z,20.33
2023-05-15T05:27:17.513Z,20.35
2023-05-15T05:29:45.163Z,20.40
2023-05-15T05:32:12.832Z,20.46
2023-05-15T05:34:40.153Z,20.52
2023-05-15T05:37:07.680Z,20.58
2023-05-15T05:39:35.430Z,20.64
2023-05-15T05:42:03.167Z,20.70
2023-05-15T05:44:30.931Z,20.75
2023-05-15T05:46:58.313Z,20.81
2023-05-15T05:49:25.948Z,20.87
2023-05-15T05:51:53.401Z,20.93
2023-05-15T05:54:20.856Z,20.99
2023-05-15T05:56:48.425Z,21.06
2023-05-15T05:59:16.074Z,21.11
2023-05-15T06:01:43.750Z,21.18
2023-05-15T06:04:11.754Z,21.23
2023-05-15T06:06:39.582Z,21.27
2023-05-15T06:09:07.144Z,21.34
2023-05-15T06:11:34.621Z,21.38
2023-05-15T06:14:02.387Z,21.41
2023-05-15T06:16:30.238Z,21.47
2023-05-15T06:18:58.029Z,21.55
2023-05-15T06:21:25.544Z,21.64
2023-05-15T06:23:53.095Z,21.73
2023-05-15T06:26:22.501Z,21.81
2023-05-15T06:28:50.069Z,21.89
2023-05-15T06:31:17.857Z,21.96
2023-05-15T06:33:45.284Z,22.05
2023-05-15T06:36:12.804Z,22.14
2023-05-15T06:38:40.512Z,22.23
2023-05-15T06:41:08.271Z,22.32
2023-05-15T06:43:36.483Z,22.38
2023-05-15T06:46:05.357Z,22.43
2023-05-15T06:48:32.817Z,22.50
2023-05-15T06:51:00.557Z,22.60
2023-05-15T06:53:30.089Z,22.69
2023-05-15T06:55:57.419Z,22.81
2023-05-15T06:58:25.394Z,22.93
2023-05-15T07:00:54.242Z,23.02
2023-05-15T07:03:23.778Z,23.13
2023-05-15T07:05:52.680Z,23.23
2023-05-15T07:08:20.092Z,23.31
2023-05-15T07:10:48.912Z,23.36
2023-05-15T07:13:21.093Z,23.44
2023-05-15T07:15:49.253Z,23.53
2023-05-15T07:18:16.573Z,23.59
2023-05-15T07:20:44.059Z,23.65
2023-05-15T07:23:11.317Z,23.74
2023-05-15T07:25:38.985Z,23.85
2023-05-15T07:28:07.151Z,23.96
2023-05-15T07:30:34.202Z,24.02
2023-05-15T07:33:01.501Z,24.05
2023-05-15T07:35:28.695Z,24.10
2023-05-15T07:37:56.384Z,24.17
2023-05-15T07:40:23.736Z,24.28
2023-05-15T07:42:51.370Z,24.39
2023-05-15T07:45:19.076Z,24.46
2023-05-15T07:47:47.670Z,24.49
2023-05-15T07:50:15.186Z,24.55
2023-05-15T07:52:43.460Z,24.64
2023-05-15T07:55:11.051Z,24.70
2023-05-15T07:57:40.041Z,24.80
2023-05-15T08:00:13.498Z,24.91
2023-05-15T08:02:41.834Z,24.99
2023-05-15T08:05:10.657Z,25.08
2023-05-15T08:07:37.726Z,25.17
2023-05-15T08:10:06.532Z,25.25
2023-05-15T08:12:33.970Z,25.29
2023-05-15T08:15:01.519Z,25.38
2023-05-15T08:17:29.012Z,25.52
2023-05-15T08:19:56.348Z,25.64
2023-05-15T08:22:23.890Z,25.74
2023-05-15T08:24:51.250Z,25.85
2023-05-15T08:27:18.466Z,25.92
2023-05-15T08:29:46.278Z,25.99
2023-05-15T08:32:14.025Z,26.12
2023-05-15T08:34:41.067Z,26.25
2023-05-15T08:37:08.525Z,26.32
2023-05-15T08:39:35.792Z,26.38
2023-05-15T08:42:22.387Z,26.46
2023-05-15T08:44:50.549Z,26.56
2023-05-15T08:47:19.574Z,26.58
2023-05-15T08:50:05.345Z,26.65
2023-05-15T08:52:33.410Z,26.74
2023-05-15T08:55:01.497Z,26.81
2023-05-15T08:57:29.367Z,26.85
2023-05-15T08:59:57.012Z,26.90
2023-05-15T09:02:25.728Z,26.93
2023-05-15T09:04:53.150Z,26.83
2023-05-15T09:07:20.840Z,26.78
2023-05-15T09:09:48.493Z,26.88
2023-05-15T09:12:16.337Z,27.03
2023-05-15T09:14:44.312Z,27.14
2023-05-15T09:17:12.424Z,27.05
2023-05-15T09:19:43.323Z,26.96
2023-05-15T09:22:26.853Z,26.86
2023-05-15T09:24:55.544Z,26.79
2023-05-15T09:27:23.095Z,26.78
2023-05-15T09:29:54.558Z,26.87
2023-05-15T09:32:22.432Z,27.06
2023-05-15T09:34:50.188Z,27.28
2023-05-15T09:37:30.171Z,27.50
2023-05-15T09:40:09.277Z,27.71
2023-05-15T09:42:37.229Z,27.88
2023-05-15T09:45:06.220Z,28.01
2023-05-15T09:47:34.258Z,28.08
2023-05-15T09:50:02.474Z,28.12
2023-05-15T09:52:30.541Z,28.21
2023-05-15T09:54:58.231Z,28.28
2023-05-15T09:57:25.961Z,28.31
2023-05-15T09:59:53.488Z,28.29
2023-05-15T10:02:24.997Z,28.31
2023-05-15T10:04:57.235Z,28.32
2023-05-15T10:07:32.170Z,27.97
2023-05-15T10:10:00.448Z,27.52
2023-05-15T10:12:29.033Z,27.31
2023-05-15T10:14:57.101Z,27.10
2023-05-15T10:17:24.789Z,27.04
2023-05-15T10:19:58.532Z,27.14
2023-05-15T10:22:29.719Z,27.33
2023-05-15T10:25:03.262Z,27.58
2023-05-15T10:27:30.813Z,27.82
2023-05-15T10:29:58.839Z,27.97
2023-05-15T10:32:26.353Z,28.07
2023-05-15T10:34:54.577Z,28.23
2023-05-15T10:37:22.200Z,28.43
2023-05-15T10:39:50.078Z,28.63
2023-05-15T10:42:17.767Z,28.87
2023-05-15T10:44:45.222Z,29.13
2023-05-15T10:47:12.950Z,29.41
2023-05-15T10:49:40.768Z,29.74
2023-05-15T10:52:09.332Z,30.06
2023-05-15T10:54:36.987Z,30.40
2023-05-15T10:57:04.756Z,30.74
2023-05-15T10:59:32.951Z,31.01
2023-05-15T11:02:19.811Z,31.16
2023-05-15T11:04:47.911Z,31.29
2023-05-15T11:07:16.898Z,31.25
2023-05-15T11:09:44.540Z,31.06
2023-05-15T11:12:12.427Z,30.96
2023-05-15T11:14:42.139Z,30.84
2023-05-15T11:17:12.897Z,30.70
2023-05-15T11:19:49.357Z,30.42
2023-05-15T11:22:19.476Z,30.03
2023-05-15T11:24:52.862Z,29.84
2023-05-15T11:27:31.572Z,29.93
2023-05-15T11:30:18.621Z,30.30
2023-05-15T11:32:52.090Z,30.91
2023-05-15T11:35:46.166Z,31.61
2023-05-15T11:38:17.920Z,32.49
2023-05-15T11:40:56.235Z,33.18
2023-05-15T11:43:31.272Z,33.82
2023-05-15T11:46:09.686Z,34.33
2023-05-15T11:48:42.371Z,34.86
2023-05-15T11:51:26.645Z,35.37
2023-05-15T11:53:55.630Z,35.89
2023-05-15T11:56:24.856Z,36.27
2023-05-15T11:58:55.804Z,36.50
2023-05-15T12:01:23.302Z,36.74
2023-05-15T12:03:53.544Z,36.94
2023-05-15T12:06:20.869Z,37.12
2023-05-15T12:08:56.465Z,37.24
2023-05-15T12:11:24.611Z,37.33
2023-05-15T12:13:54.511Z,37.27
2023-05-15T12:16:26.579Z,37.09
2023-05-15T12:18:54.496Z,37.00
2023-05-15T12:21:22.344Z,36.88
2023-05-15T12:24:06.540Z,36.63
2023-05-15T12:26:35.047Z,36.14
2023-05-15T12:29:02.712Z,35.70
2023-05-15T12:31:30.584Z,35.18
2023-05-15T12:33:58.105Z,34.71
2023-05-15T12:36:29.987Z,34.44
2023-05-15T12:38:58.570Z,34.05
2023-05-15T12:41:29.626Z,33.49
2023-05-15T12:43:57.217Z,32.90
2023-05-15T12:46:32.067Z,32.40
2023-05-15T12:49:00.111Z,32.05
2023-05-15T12:51:27.734Z,31.89
2023-05-15T12:53:57.854Z,31.85
2023-05-15T12:56:26.659Z,31.81
2023-05-15T12:58:55.019Z,31.73
2023-05-15T13:01:23.239Z,31.70
2023-05-15T13:03:51.577Z,31.70
2023-05-15T13:06:19.222Z,31.72
2023-05-15T13:08:47.946Z,31.69
2023-05-15T13:11:16.801Z,31.63
2023-05-15T13:13:49.429Z,31.56
2023-05-15T13:16:22.133Z,31.43
2023-05-15T13:18:49.816Z,31.30
2023-05-15T13:21:18.197Z,31.14
2023-05-15T13:23:46.168Z,31.08
2023-05-15T13:26:13.942Z,31.20
2023-05-15T13:28:42.323Z,31.37
2023-05-15T13:31:10.203Z,31.50
2023-05-15T13:33:37.836Z,31.63
2023-05-15T13:36:06.149Z,31.69
2023-05-15T13:38:33.654Z,31.56
2023-05-15T13:41:01.132Z,31.38
2023-05-15T13:43:28.482Z,31.28
2023-05-15T13:45:56.257Z,31.29
2023-05-15T13:48:23.604Z,31.38
2023-05-15T13:50:51.472Z,31.49
2023-05-15T13:53:19.235Z,31.70
2023-05-15T13:55:47.075Z,31.99
2023-05-15T13:58:14.864Z,32.12
2023-05-15T14:00:43.186Z,31.98
2023-05-15T14:03:14.118Z,31.93
2023-05-15T14:05:43.002Z,32.06
2023-05-15T14:08:11.352Z,32.13
2023-05-15T14:10:38.705Z,32.07
2023-05-15T14:13:06.378Z,31.92
2023-05-15T14:15:34.336Z,31.67
2023-05-15T14:18:02.146Z,31.43
2023-05-15T14:20:29.961Z,31.25
2023-05-15T14:22:57.553Z,31.10
2023-05-15T14:25:25.388Z,31.01
2023-05-15T14:27:53.049Z,30.88
2023-05-15T14:30:21.879Z,30.70
2023-05-15T14:32:49.643Z,30.55
2023-05-15T14:35:17.177Z,30.46
2023-05-15T14:37:45.316Z,30.39
2023-05-15T14:40:13.461Z,30.25
2023-05-15T14:42:41.015Z,30.11
2023-05-15T14:45:09.443Z,30.03
2023-05-15T14:47:37.039Z,29.94
2023-05-15T14:50:05.432Z,29.87
2023-05-15T14:52:32.731Z,29.78
2023-05-15T14:55:08.396Z,29.69
2023-05-15T14:57:38.183Z,29.64
2023-05-15T15:00:07.318Z,29.62
2023-05-15T15:02:34.931Z,29.58
2023-05-15T15:05:02.614Z,29.50
2023-05-15T15:07:33.036Z,29.40
2023-05-15T15:10:00.799Z,29.26
2023-05-15T15:12:28.938Z,29.11
2023-05-15T15:14:56.180Z,28.97
2023-05-15T15:17:24.187Z,28.87
2023-05-15T15:19:52.373Z,28.75
2023-05-15T15:22:19.926Z,28.52
2023-05-15T15:24:47.280Z,28.28
2023-05-15T15:27:14.633Z,27.97
2023-05-15T15:29:45.274Z,27.73
2023-05-15T15:32:13.116Z,27.49
2023-05-15T15:34:41.520Z,27.41
2023-05-15T15:37:08.908Z,27.42
2023-05-15T15:39:36.278Z,27.41
2023-05-15T15:42:05.692Z,27.39
2023-05-15T15:44:34.616Z,27.33
2023-05-15T15:47:02.690Z,27.20
2023-05-15T15:49:31.075Z,27.04
2023-05-15T15:51:58.413Z,26.91
2023-05-15T15:54:25.875Z,26.80
2023-05-15T15:56:53.547Z,26.68
2023-05-15T15:59:22.638Z,26.57
2023-05-15T16:01:50.118Z,26.48
2023-05-15T16:04:17.883Z,26.43
2023-05-15T16:06:46.029Z,26.39
2023-05-15T16:09:13.589Z,26.33
2023-05-15T16:11:41.044Z,26.23
2023-05-15T16:14:08.606Z,26.14
2023-05-15T16:16:36.170Z,26.08
2023-05-15T16:19:04.961Z,26.00
2023-05-15T16:21:32.610Z,25.91
2023-05-15T16:24:00.682Z,25.85
2023-05-15T16:26:28.345Z,25.80
2023-05-15T16:28:57.253Z,25.76
2023-05-15T16:31:25.006Z,25.69
2023-05-15T16:33:53.186Z,25.61
2023-05-15T16:36:20.628Z,25.52
2023-05-15T16:38:48.804Z,25.44
2023-05-15T16:41:16.580Z,25.36
2023-05-15T16:43:44.805Z,25.30
2023-05-15T16:46:12.224Z,25.22
2023-05-15T16:48:40.985Z,25.12
2023-05-15T16:51:09.503Z,25.00
2023-05-15T16:53:37.227Z,24.90
2023-05-15T16:56:05.093Z,24.79
2023-05-15T16:58:32.863Z,24.66
2023-05-15T17:01:00.416Z,24.55
2023-05-15T17:03:27.973Z,24.45
2023-05-15T17:05:55.637Z,24.33
2023-05-15T17:08:23.298Z,24.20
2023-05-15T17:10:51.307Z,24.10
2023-05-15T17:13:19.038Z,24.02
2023-05-15T17:15:47.581Z,23.94
2023-05-15T17:18:15.261Z,23.88
2023-05-15T17:20:42.934Z,23.80
2023-05-15T17:23:10.699Z,23.72
2023-05-15T17:25:37.955Z,23.64
2023-05-15T17:28:05.616Z,23.53
2023-05-15T17:30:33.306Z,23.42
2023-05-15T17:33:01.201Z,23.31
2023-05-15T17:35:30.747Z,23.21
2023-05-15T17:38:00.260Z,23.12
2023-05-15T17:40:30.465Z,23.03
2023-05-15T17:42:58.069Z,22.96
2023-05-15T17:45:27.372Z,22.90
2023-05-15T17:48:02.621Z,22.85
2023-05-15T17:50:30.451Z,22.78
2023-05-15T17:52:57.986Z,22.68
2023-05-15T17:55:25.595Z,22.63
2023-05-15T17:57:53.535Z,22.57
2023-05-15T18:00:21.611Z,22.49
2023-05-15T18:02:49.393Z,22.38
2023-05-15T18:05:17.640Z,22.25
2023-05-15T18:07:48.295Z,22.20
2023-05-15T18:10:16.028Z,22.18
2023-05-15T18:12:43.483Z,22.17
2023-05-15T18:15:11.353Z,22.13
2023-05-15T18:17:38.802Z,22.09
2023-05-15T18:20:07.518Z,22.05
2023-05-15T18:22:36.696Z,22.01
2023-05-15T18:25:04.993Z,21.96
2023-05-15T18:27:32.428Z,21.93
2023-05-15T18:30:00.193Z,21.94
2023-05-15T18:32:30.126Z,21.93
2023-05-15T18:34:59.210Z,21.91
2023-05-15T18:37:26.860Z,21.93
2023-05-15T18:39:57.390Z,21.88
2023-05-15T18:42:25.979Z,21.78
2023-05-15T18:44:55.078Z,21.68
2023-05-15T18:47:22.476Z,21.60
2023-05-15T18:49:49.981Z,21.55
2023-05-15T18:52:19.126Z,21.54
2023-05-15T18:54:46.849Z,21.50
2023-05-15T18:57:17.484Z,21.49
2023-05-15T18:59:45.443Z,21.56
2023-05-15T19:02:13.439Z,21.63
2023-05-15T19:04:41.275Z,21.66
2023-05-15T19:07:08.729Z,21.69
2023-05-15T19:09:36.616Z,21.71
2023-05-15T19:12:04.092Z,21.73
2023-05-15T19:14:32.536Z,21.71
2023-05-15T19:17:00.285Z,21.64
2023-05-15T19:19:27.963Z,21.57
2023-05-15T19:21:55.630Z,21.53
2023-05-15T19:24:23.282Z,21.49
2023-05-15T19:26:50.846Z,21.45
2023-05-15T19:29:18.093Z,21.40
2023-05-15T19:31:46.091Z,21.37
2023-05-15T19:34:14.140Z,21.33
2023-05-15T19:36:41.793Z,21.30
2023-05-15T19:39:09.457Z,21.27
2023-05-15T19:41:36.911Z,21.22
2023-05-15T19:44:04.876Z,21.18
2023-05-15T19:46:32.386Z,21.14
2023-05-15T19:48:59.905Z,21.09
2023-05-15T19:51:27.554Z,21.04
2023-05-15T19:53:56.059Z,20.98
2023-05-15T19:56:24.623Z,20.92
2023-05-15T19:58:52.894Z,20.87
2023-05-15T20:01:20.610Z,20.81
2023-05-15T20:03:48.397Z,20.74
2023-05-15T20:06:16.292Z,20.67
2023-05-15T20:08:43.847Z,20.61
2023-05-15T20:11:11.610Z,20.55
2023-05-15T20:13:39.579Z,20.49
2023-05-15T20:16:13.059Z,20.42
2023-05-15T20:18:41.640Z,20.26
2023-05-15T20:21:09.437Z,20.12
2023-05-15T20:23:36.894Z,20.03
2023-05-15T20:26:04.142Z,19.97
2023-05-15T20:28:31.723Z,19.92
2023-05-15T20:31:00.105Z,19.83
2023-05-15T20:33:27.702Z,19.76
2023-05-15T20:35:55.404Z,19.68
2023-05-15T20:38:25.625Z,19.58
2023-05-15T20:40:53.285Z,19.47
2023-05-15T20:43:20.611Z,19.46
2023-05-15T20:45:48.212Z,19.44
2023-05-15T20:48:15.871Z,19.39
2023-05-15T20:50:43.314Z,19.35
2023-05-15T20:53:10.766Z,19.34
2023-05-15T20:55:38.223Z,19.33
2023-05-15T20:58:05.892Z,19.32
2023-05-15T21:00:33.446Z,19.34
2023-05-15T21:03:01.217Z,19.43
2023-05-15T21:05:30.100Z,19.46
2023-05-15T21:07:57.865Z,19.42
2023-05-15T21:10:26.025Z,19.39
2023-05-15T21:12:53.922Z,19.34
2023-05-15T21:15:21.667Z,19.26
2023-05-15T21:17:48.906Z,19.18
2023-05-15T21:20:16.896Z,19.11
2023-05-15T21:22:44.866Z,19.06
2023-05-15T21:25:12.770Z,19.01
2023-05-15T21:27:40.798Z,18.98
2023-05-15T21:30:09.061Z,18.95
2023-05-15T21:32:36.706Z,18.90
2023-05-15T21:35:04.773Z,18.88
2023-05-15T21:37:32.259Z,18.87
2023-05-15T21:39:59.822Z,18.87
2023-05-15T21:42:27.278Z,18.87
2023-05-15T21:44:54.732Z,18.88
2023-05-15T21:47:22.373Z,18.88
2023-05-15T21:49:50.179Z,18.88
2023-05-15T21:52:17.718Z,18.89
2023-05-15T21:54:45.690Z,18.91
2023-05-15T21:57:13.228Z,18.96
2023-05-15T21:59:40.777Z,18.99
2023-05-15T22:02:08.420Z,19.03
2023-05-15T22:04:36.132Z,19.06
2023-05-15T22:07:03.573Z,19.09
2023-05-15T22:09:31.162Z,19.08
2023-05-15T22:11:58.901Z,19.09
2023-05-15T22:14:26.574Z,19.10
2023-05-15T22:16:54.263Z,19.11
2023-05-15T22:21:56.408Z,19.14
2023-05-15T22:24:23.972Z,19.17
2023-05-15T22:26:51.425Z,19.17
2023-05-15T22:29:18.692Z,19.15
2023-05-15T22:31:46.621Z,19.10
2023-05-15T22:34:14.049Z,19.02
2023-05-15T22:36:41.661Z,18.96
2023-05-15T22:39:09.324Z,18.93
2023-05-15T22:41:36.985Z,18.91
2023-05-15T22:44:05.369Z,18.91
2023-05-15T22:46:33.104Z,18.90
2023-05-15T22:49:01.957Z,18.88
2023-05-15T22:51:29.886Z,18.86
2023-05-15T22:53:57.445Z,18.84
2023-05-15T22:56:24.800Z,18.82
2023-05-15T22:58:53.792Z,18.81
2023-05-15T23:01:21.597Z,18.77
2023-05-15T23:03:49.287Z,18.73
2023-05-15T23:06:18.004Z,18.71
2023-05-15T23:08:45.562Z,18.69
2023-05-15T23:11:13.220Z,18.67
2023-05-15T23:13:40.769Z,18.64
2023-05-15T23:16:08.266Z,18.61
2023-05-15T23:18:36.978Z,18.61
2023-05-15T23:21:05.127Z,18.61
2023-05-15T23:23:32.902Z,18.62
2023-05-15T23:26:00.216Z,18.60
2023-05-15T23:28:27.724Z,18.59
2023-05-15T23:30:55.795Z,18.58
2023-05-15T23:33:23.841Z,18.56
2023-05-15T23:35:52.507Z,18.54
2023-05-15T23:38:22.542Z,18.52
2023-05-15T23:40:50.488Z,18.49
2023-05-15T23:43:17.945Z,18.48
2023-05-15T23:45:45.576Z,18.48
2023-05-15T23:48:13.104Z,18.49
2023-05-15T23:50:40.840Z,18.52
2023-05-15T23:53:08.793Z,18.57
2023-05-15T23:55:36.253Z,18.61
2023-05-15T23:58:03.660Z,18.64
